createdAt,value
2023-04-24T06:21:06.158Z,993.55
2023-04-24T06:31:06.238Z,993.52
2023-04-24T06:41:06.206Z,993.70
2023-04-24T06:51:06.549Z,993.64
2023-04-24T07:01:06.276Z,993.74
2023-04-24T07:11:06.210Z,993.78
2023-04-24T07:21:06.282Z,993.86
2023-04-24T07:31:06.257Z,993.81
2023-04-24T07:41:06.292Z,994.07
2023-04-24T07:51:06.250Z,994.10
2023-04-24T08:01:06.233Z,994.10
2023-04-24T08:11:06.329Z,994.25
2023-04-24T08:21:06.270Z,994.29
2023-04-24T08:31:06.308Z,994.39
2023-04-24T08:41:06.372Z,994.46
2023-04-24T08:51:06.449Z,994.46
2023-04-24T09:01:06.719Z,994.37
2023-04-24T09:11:06.781Z,994.55
2023-04-24T09:21:06.742Z,994.58
2023-04-24T09:31:06.823Z,994.73
2023-04-24T09:41:06.767Z,994.66
2023-04-24T09:51:06.749Z,994.61
2023-04-24T10:01:06.840Z,994.65
2023-04-24T10:11:06.719Z,994.70
2023-04-24T10:21:06.625Z,994.59
2023-04-24T10:31:06.826Z,994.65
2023-04-24T10:41:06.765Z,994.66
2023-04-24T10:51:06.834Z,994.61
2023-04-24T11:01:06.807Z,994.68
2023-04-24T11:11:06.750Z,994.81
2023-04-24T11:21:06.924Z,994.64
2023-04-24T11:31:06.894Z,994.78
2023-04-24T11:41:06.956Z,995.09
2023-04-24T11:51:06.918Z,995.06
2023-04-24T12:01:06.767Z,994.95
2023-04-24T12:11:06.848Z,994.82
2023-04-24T12:21:06.687Z,994.77
2023-04-24T12:31:06.777Z,994.85
2023-04-24T12:41:06.824Z,995.07
2023-04-24T12:51:06.902Z,995.24
2023-04-24T13:01:06.917Z,995.41
2023-04-24T13:11:06.913Z,995.40
2023-04-24T13:21:06.987Z,995.49
2023-04-24T13:31:06.773Z,995.78
2023-04-24T13:41:06.933Z,996.09
2023-04-24T13:51:06.767Z,996.18
2023-04-24T14:01:06.793Z,996.14
2023-04-24T14:11:06.807Z,996.52
2023-04-24T14:21:06.894Z,996.68
2023-04-24T14:31:07.165Z,996.68
2023-04-24T14:41:09.129Z,996.92
2023-04-24T14:51:06.965Z,997.22
2023-04-24T15:01:06.932Z,997.31
2023-04-24T15:11:07.017Z,997.41
2023-04-24T15:21:06.847Z,997.53
2023-04-24T15:31:06.847Z,997.37
2023-04-24T15:41:08.007Z,997.76
2023-04-24T15:51:07.073Z,997.89
2023-04-24T16:01:07.042Z,997.89
2023-04-24T16:11:07.026Z,997.92
2023-04-24T16:21:07.037Z,997.88
2023-04-24T16:31:07.070Z,998.01
2023-04-24T16:41:07.004Z,997.97
2023-04-24T16:51:07.140Z,998.06
2023-04-24T17:01:07.244Z,998.08
2023-04-24T17:11:07.064Z,998.16
2023-04-24T17:21:07.134Z,998.29
2023-04-24T17:31:06.985Z,998.34
2023-04-24T17:41:07.149Z,998.46
2023-04-24T17:51:07.328Z,998.41
2023-04-24T18:01:07.246Z,998.46
2023-04-24T18:11:07.269Z,998.74
2023-04-24T18:21:07.226Z,998.67
2023-04-24T18:31:07.194Z,998.75
2023-04-24T18:41:07.244Z,998.76
2023-04-24T18:51:08.227Z,998.80
2023-04-24T19:01:08.307Z,998.85
2023-04-24T19:11:07.434Z,999.11
2023-04-24T19:21:07.408Z,999.28
